Alleghany, California
Current Conditions -  °F | °C
As of 11:52 AM on Monday 24 Nov 2014 (Local Time) from KBLU Reporting Station
Clear Clear  
Wind Chill: 55°   Ceiling: Unl
Heat Index: 55°   Visibility: 10mi
Dew Point: 12°   Wind: 0mph
Humidity: 18%   Direction: NA
Pressure: 30.41"   Gusts: NA
Location:  39.47°N, 120.85°W
Report Text: KBLU 241952Z AUTO 00000KT 10SM CLR 13/M11 A3041 RMK AO2 SLP264 T01281111
Loading
Personal Weather Stations






























Interactive Weather Map New forecast layout! Learn more

10-Day Weather Forecast

Advertisements
Track Severe Weather on mobile